Green Ridge — WZZF — position and weather

sailwx.info

Track history (hours):
 
Tides and Currents Weather Stations Pressure Air Temp Water Temp Dewpoint Dewpoint Depression Visibility Wind Speed Wind Dir Waves Ship Positions

Green Ridge

Owner: Seabulk Fleet Management, Tampa, FL. More information available from US FCC via Universal Licensing System and Coast Guard Vessel Documentation Center.

Last reported at 2018-Feb-22 03:00 UTC. Time now 2018-Feb-22 03:12 UTC.
Position N 50°22' E 000°24'.

Length 200 m; draft 8.7 m.

Type: Cargo ship. MMSI: 369326000.

Date/timePositionNaut miles runAvg speedWind from/ knotsBaromVisibWave heightAir tempDewpointWater temp
2018-Feb-22 03:00N 50°22' E 000°24'816.3
2018-Feb-22 02:30N 50°19' E 000°12'816.9
2018-Feb-22 02:00N 50°16' E 000°00'917.5
2018-Feb-22 01:30N 50°13' W 000°13'918.1
2018-Feb-22 01:00N 50°09' W 000°26'918.4
2018-Feb-22 00:30N 50°05' W 000°39'918.5
2018-Feb-22 00:00N 50°01' W 000°52'918.7
2018-Feb-21 23:30N 49°57' W 001°05'918.9
2018-Feb-21 23:00N 49°53' W 001°18'918.8
2018-Feb-21 22:30N 49°48' W 001°30'816.1
2018-Feb-21 22:01N 49°43' W 001°39'510.4
2018-Feb-21 21:31N 49°46' W 001°46'816.7
2018-Feb-21 21:01N 49°48' W 001°58'3016.4
2018-Feb-21 19:10N 49°50' W 002°45'316.4
2018-Feb-21 19:01N 49°50' W 002°49'916.3
2018-Feb-21 18:28N 49°47' W 003°02'815.9
2018-Feb-21 18:00N 49°44' W 003°12'7215.5
2018-Feb-21 13:20N 49°07' W 004°48'914.9
2018-Feb-21 12:41N 49°02' W 005°00'314.9
2018-Feb-21 12:28N 49°01' W 005°05'814.8
2018-Feb-21 11:56N 48°57' W 005°15'614.8
2018-Feb-21 11:30N 48°53' W 005°23'815.1
2018-Feb-21 11:00N 48°50' W 005°33'814.8
2018-Feb-21 10:26N 48°44' W 005°43'713.6
2018-Feb-21 09:57N 48°38' W 005°46'57215.6
2018-Feb-19 21:16N 39°33' W 009°51'415.7
2018-Feb-19 21:00N 39°29' W 009°51'815.9
2018-Feb-19 20:30N 39°21' W 009°51'815.5
2018-Feb-19 20:00N 39°13' W 009°52'815.3
2018-Feb-19 19:30N 39°06' W 009°52'815.4
2018-Feb-19 19:01N 38°58' W 009°52'815.3
2018-Feb-19 18:30N 38°50' W 009°52'815.6
2018-Feb-19 18:01N 38°43' W 009°52'815.6
2018-Feb-19 17:31N 38°35' W 009°49'815.9
2018-Feb-19 17:01N 38°27' W 009°47'815.3
2018-Feb-19 16:31N 38°20' W 009°44'815.1
2018-Feb-19 16:01N 38°13' W 009°41'815.3
2018-Feb-19 15:31N 38°05' W 009°39'815.8
2018-Feb-19 15:01N 37°58' W 009°37'816.1
2018-Feb-19 14:30N 37°50' W 009°35'816.0
2018-Feb-19 14:01N 37°42' W 009°33'816.1
2018-Feb-19 13:31N 37°34' W 009°30'816.4
2018-Feb-19 13:01N 37°26' W 009°27'816.1
2018-Feb-19 12:30N 37°18' W 009°25'816.4
2018-Feb-19 12:01N 37°10' W 009°23'2915.0
2018-Feb-19 10:06N 36°45' W 009°05'215.9
2018-Feb-19 10:00N 36°45' W 009°04'815.6
2018-Feb-19 09:30N 36°42' W 008°55'815.2
2018-Feb-19 09:00N 36°40' W 008°46'37115.6
2018-Feb-18 09:12N 37°13' W 001°04'317.6
2018-Feb-18 09:00N 37°16' W 001°01'917.6
2018-Feb-18 08:30N 37°22' W 000°53'917.4
2018-Feb-18 08:00N 37°28' W 000°45'916.8
2018-Feb-18 07:30N 37°33' W 000°36'816.2
2018-Feb-18 07:00N 37°39' W 000°30'815.9
2018-Feb-18 06:30N 37°45' W 000°24'1016.0
2018-Feb-18 05:54N 37°54' W 000°18'616.2
2018-Feb-18 05:30N 37°59' W 000°13'19816.9
2018-Feb-17 17:49N 40°52' E 001°51'516.8
2018-Feb-17 17:30N 40°56' E 001°55'817.0
2018-Feb-17 17:00N 41°04' E 002°01'816.8
2018-Feb-17 16:31N 41°11' E 002°07'714.5
2018-Feb-17 16:00N 41°18' E 002°11'3 6.3
2018-Feb-17 15:30N 41°21' E 002°09'1 1.1
2018-Feb-17 14:58N 41°20' E 002°09'0 0.0
2018-Feb-17 14:28N 41°20' E 002°09'0 0.0
2018-Feb-17 13:58N 41°20' E 002°09'0 0.0
2018-Feb-17 13:28N 41°20' E 002°09'0 0.0
2018-Feb-17 12:58N 41°20' E 002°09'0 0.0
2018-Feb-17 12:28N 41°20' E 002°09'0 0.0
2018-Feb-17 11:58N 41°20' E 002°09'0 0.0
2018-Feb-17 11:28N 41°20' E 002°09'0 0.0
2018-Feb-17 10:58N 41°20' E 002°09'0 0.0
2018-Feb-17 10:28N 41°20' E 002°09'0 0.0
2018-Feb-17 09:58N 41°20' E 002°09'0 0.0
2018-Feb-17 09:28N 41°20' E 002°09'0 0.0
2018-Feb-17 08:58N 41°20' E 002°09'0 0.0
2018-Feb-17 08:28N 41°20' E 002°09'2 0.4
2018-Feb-17 04:15N 41°19' E 002°10'5 6.7
2018-Feb-17 03:30N 41°15' E 002°15'613.1
2018-Feb-17 03:01N 41°12' E 002°23'815.7
2018-Feb-17 02:30N 41°09' E 002°32'1 1.8
2018-Feb-17 02:00N 41°08' E 002°32'713.1
2018-Feb-17 01:30N 41°04' E 002°40'2215.9
2018-Feb-17 00:07N 40°54' E 003°05'216.0
2018-Feb-16 23:59N 40°53' E 003°08'55013.5
2018-Feb-15 07:20N 36°41' E 013°36'715.9
2018-Feb-15 06:55N 36°39' E 013°43'715.9
2018-Feb-15 06:30N 36°36' E 013°51'815.8
2018-Feb-15 05:59N 36°34' E 014°01'815.8
2018-Feb-15 05:30N 36°32' E 014°10'815.6
2018-Feb-15 05:00N 36°30' E 014°19'815.3
2018-Feb-15 04:30N 36°28' E 014°28'815.4
2018-Feb-15 04:00N 36°25' E 014°37'815.4
2018-Feb-15 03:30N 36°22' E 014°46'  
Track history (hours):
 
Tides and Currents Weather Stations Pressure Air Temp Water Temp Dewpoint Dewpoint Depression Visibility Wind Speed Wind Dir Waves Ship Positions

Green Ridge

Owner: Seabulk Fleet Management, Tampa, FL. More information available from US FCC via Universal Licensing System and Coast Guard Vessel Documentation Center.

Last reported at 2018-Feb-22 03:00 UTC. Time now 2018-Feb-22 03:12 UTC.
Position N 50°22' E 000°24'.

Length 200 m; draft 8.7 m.

Type: Cargo ship. MMSI: 369326000.

Date/timePositionNaut miles runAvg speedWind from/ knotsBaromVisibWave heightAir tempDewpointWater temp
2018-Feb-22 03:00N 50°22' E 000°24'816.3
2018-Feb-22 02:30N 50°19' E 000°12'816.9
2018-Feb-22 02:00N 50°16' E 000°00'917.5
2018-Feb-22 01:30N 50°13' W 000°13'918.1
2018-Feb-22 01:00N 50°09' W 000°26'918.4
2018-Feb-22 00:30N 50°05' W 000°39'918.5
2018-Feb-22 00:00N 50°01' W 000°52'918.7
2018-Feb-21 23:30N 49°57' W 001°05'918.9
2018-Feb-21 23:00N 49°53' W 001°18'918.8
2018-Feb-21 22:30N 49°48' W 001°30'816.1
2018-Feb-21 22:01N 49°43' W 001°39'510.4
2018-Feb-21 21:31N 49°46' W 001°46'816.7
2018-Feb-21 21:01N 49°48' W 001°58'3016.4
2018-Feb-21 19:10N 49°50' W 002°45'316.4
2018-Feb-21 19:01N 49°50' W 002°49'916.3
2018-Feb-21 18:28N 49°47' W 003°02'815.9
2018-Feb-21 18:00N 49°44' W 003°12'7215.5
2018-Feb-21 13:20N 49°07' W 004°48'914.9
2018-Feb-21 12:41N 49°02' W 005°00'314.9
2018-Feb-21 12:28N 49°01' W 005°05'814.8
2018-Feb-21 11:56N 48°57' W 005°15'614.8
2018-Feb-21 11:30N 48°53' W 005°23'815.1
2018-Feb-21 11:00N 48°50' W 005°33'814.8
2018-Feb-21 10:26N 48°44' W 005°43'713.6
2018-Feb-21 09:57N 48°38' W 005°46'57215.6
2018-Feb-19 21:16N 39°33' W 009°51'415.7
2018-Feb-19 21:00N 39°29' W 009°51'815.9
2018-Feb-19 20:30N 39°21' W 009°51'815.5
2018-Feb-19 20:00N 39°13' W 009°52'815.3
2018-Feb-19 19:30N 39°06' W 009°52'815.4
2018-Feb-19 19:01N 38°58' W 009°52'815.3
2018-Feb-19 18:30N 38°50' W 009°52'815.6
2018-Feb-19 18:01N 38°43' W 009°52'815.6
2018-Feb-19 17:31N 38°35' W 009°49'815.9
2018-Feb-19 17:01N 38°27' W 009°47'815.3
2018-Feb-19 16:31N 38°20' W 009°44'815.1
2018-Feb-19 16:01N 38°13' W 009°41'815.3
2018-Feb-19 15:31N 38°05' W 009°39'815.8
2018-Feb-19 15:01N 37°58' W 009°37'816.1
2018-Feb-19 14:30N 37°50' W 009°35'816.0
2018-Feb-19 14:01N 37°42' W 009°33'816.1
2018-Feb-19 13:31N 37°34' W 009°30'816.4
2018-Feb-19 13:01N 37°26' W 009°27'816.1
2018-Feb-19 12:30N 37°18' W 009°25'816.4
2018-Feb-19 12:01N 37°10' W 009°23'2915.0
2018-Feb-19 10:06N 36°45' W 009°05'215.9
2018-Feb-19 10:00N 36°45' W 009°04'815.6
2018-Feb-19 09:30N 36°42' W 008°55'815.2
2018-Feb-19 09:00N 36°40' W 008°46'37115.6
2018-Feb-18 09:12N 37°13' W 001°04'317.6
2018-Feb-18 09:00N 37°16' W 001°01'917.6
2018-Feb-18 08:30N 37°22' W 000°53'917.4
2018-Feb-18 08:00N 37°28' W 000°45'916.8
2018-Feb-18 07:30N 37°33' W 000°36'816.2
2018-Feb-18 07:00N 37°39' W 000°30'815.9
2018-Feb-18 06:30N 37°45' W 000°24'1016.0
2018-Feb-18 05:54N 37°54' W 000°18'616.2
2018-Feb-18 05:30N 37°59' W 000°13'19816.9
2018-Feb-17 17:49N 40°52' E 001°51'516.8
2018-Feb-17 17:30N 40°56' E 001°55'817.0
2018-Feb-17 17:00N 41°04' E 002°01'816.8
2018-Feb-17 16:31N 41°11' E 002°07'714.5
2018-Feb-17 16:00N 41°18' E 002°11'3 6.3
2018-Feb-17 15:30N 41°21' E 002°09'1 1.1
2018-Feb-17 14:58N 41°20' E 002°09'0 0.0
2018-Feb-17 14:28N 41°20' E 002°09'0 0.0
2018-Feb-17 13:58N 41°20' E 002°09'0 0.0
2018-Feb-17 13:28N 41°20' E 002°09'0 0.0
2018-Feb-17 12:58N 41°20' E 002°09'0 0.0
2018-Feb-17 12:28N 41°20' E 002°09'0 0.0
2018-Feb-17 11:58N 41°20' E 002°09'0 0.0
2018-Feb-17 11:28N 41°20' E 002°09'0 0.0
2018-Feb-17 10:58N 41°20' E 002°09'0 0.0
2018-Feb-17 10:28N 41°20' E 002°09'0 0.0
2018-Feb-17 09:58N 41°20' E 002°09'0 0.0
2018-Feb-17 09:28N 41°20' E 002°09'0 0.0
2018-Feb-17 08:58N 41°20' E 002°09'0 0.0
2018-Feb-17 08:28N 41°20' E 002°09'2 0.4
2018-Feb-17 04:15N 41°19' E 002°10'5 6.7
2018-Feb-17 03:30N 41°15' E 002°15'613.1
2018-Feb-17 03:01N 41°12' E 002°23'815.7
2018-Feb-17 02:30N 41°09' E 002°32'1 1.8
2018-Feb-17 02:00N 41°08' E 002°32'713.1
2018-Feb-17 01:30N 41°04' E 002°40'2215.9
2018-Feb-17 00:07N 40°54' E 003°05'216.0
2018-Feb-16 23:59N 40°53' E 003°08'55013.5
2018-Feb-15 07:20N 36°41' E 013°36'715.9
2018-Feb-15 06:55N 36°39' E 013°43'715.9
2018-Feb-15 06:30N 36°36' E 013°51'815.8
2018-Feb-15 05:59N 36°34' E 014°01'815.8
2018-Feb-15 05:30N 36°32' E 014°10'815.6
2018-Feb-15 05:00N 36°30' E 014°19'815.3
2018-Feb-15 04:30N 36°28' E 014°28'815.4
2018-Feb-15 04:00N 36°25' E 014°37'815.4
2018-Feb-15 03:30N 36°22' E 014°46'  

Dump ship's entire track history